Time;durP1;ratioP1;P1;durP2;ratioP2;P2;SDS_P1;SDS_P2;PMS_P1;PMS_P2;Temp;Humidity;BMP_temperature;BMP_pressure;BME280_temperature;BME280_humidity;BME280_pressure;Samples;Min_cycle;Max_cycle;Signal;HPM_P1;HPM_P2
2024/01/22 00:01:46;;;;;;;;;;;7.20;51.40;;;5.63;56.55;101506.81;12249466;19;19943;-86
2024/01/22 00:05:48;;;;;;;;;;;7.20;51.30;;;5.64;56.66;101487.78;12252055;19;20307;-86
2024/01/22 00:09:49;;;;;;;;;;;7.30;51.30;;;5.65;56.48;101481.72;12250796;19;19922;-86
2024/01/22 00:13:51;;;;;;;;;;;7.20;51.40;;;5.68;56.60;101447.97;12252359;19;19928;-86
2024/01/22 00:17:52;;;;;;;;;;;7.30;51.50;;;5.55;56.50;101418.88;12249844;19;19924;-86
2024/01/22 00:21:54;;;;;;;;;;;7.20;51.00;;;5.65;56.46;101436.84;12246952;19;20257;-86
2024/01/22 00:25:55;;;;;;;;;;;7.20;50.90;;;5.56;56.42;101422.31;12250564;19;19974;-86
2024/01/22 00:29:57;;;;;;;;;;;7.30;51.30;;;5.66;56.48;101430.75;12250269;19;19922;-86
2024/01/22 00:33:58;;;;;;;;;;;7.20;51.40;;;5.69;56.43;101423.75;12250111;19;19929;-86
2024/01/22 00:38:00;;;;;;;;;;;7.50;51.30;;;5.51;56.63;101387.94;12248516;19;19936;-86
2024/01/22 00:42:01;;;;;;;;;;;7.20;51.30;;;5.56;56.67;101380.88;12247656;19;19925;-86
2024/01/22 00:46:03;;;;;;;;;;;7.30;51.40;;;5.50;56.60;101360.31;12249657;19;19926;-86
2024/01/22 00:50:05;;;;;;;;;;;7.20;51.40;;;5.61;56.44;101368.66;12250344;19;19919;-86
2024/01/22 00:54:06;;;;;;;;;;;7.20;51.40;;;5.68;56.39;101369.38;12248621;19;19927;-86
2024/01/22 00:58:08;;;;;;;;;;;7.30;51.50;;;5.54;56.51;101362.81;12247191;19;19967;-86
2024/01/22 01:02:09;;;;;;;;;;;7.20;51.60;;;5.40;56.46;101338.09;12247673;19;19922;-86
2024/01/22 01:06:11;;;;;;;;;;;7.20;51.30;;;5.61;56.47;101360.91;12248080;19;19935;-86
2024/01/22 01:10:13;;;;;;;;;;;7.20;51.40;;;5.63;56.49;101358.28;12248951;19;20338;-86
2024/01/22 01:14:14;;;;;;;;;;;7.20;51.40;;;5.38;56.63;101303.66;12249083;19;20559;-86
2024/01/22 01:18:16;;;;;;;;;;;7.20;51.40;;;5.60;56.50;101324.69;12247252;19;19936;-86
2024/01/22 01:22:18;;;;;;;;;;;7.20;51.20;;;5.50;56.64;101287.78;12245137;19;19939;-86
2024/01/22 01:26:19;;;;;;;;;;;7.20;51.00;;;5.50;56.60;101286.03;12248142;19;19926;-86
2024/01/22 01:30:21;;;;;;;;;;;7.20;51.40;;;5.59;56.50;101292.75;12248300;19;19911;-86
2024/01/22 01:34:22;;;;;;;;;;;7.20;51.60;;;5.59;56.62;101282.38;12247674;19;19970;-87
2024/01/22 01:38:24;;;;;;;;;;;7.20;51.30;;;5.54;56.63;101272.13;12245093;19;19915;-86
2024/01/22 01:42:25;;;;;;;;;;;7.20;51.40;;;5.50;56.47;101265.31;12244069;19;19914;-86
2024/01/22 01:46:27;;;;;;;;;;;7.20;51.40;;;5.63;56.45;101281.41;12244601;19;19922;-87
2024/01/22 01:50:29;;;;;;;;;;;7.20;51.40;;;5.61;56.46;101269.38;12253745;19;19918;-86
2024/01/22 01:54:30;;;;;;;;;;;7.20;51.60;;;5.53;56.68;101251.44;12258716;19;19929;-86
2024/01/22 01:58:32;;;;;;;;;;;7.50;51.70;;;5.66;56.30;101267.53;12253678;19;19923;-86
2024/01/22 02:02:39;;;;;;;;;;;7.20;51.40;;;5.62;56.64;101240.84;12257102;19;20260;-86
2024/01/22 02:06:41;;;;;;;;;;;7.30;51.80;;;5.72;56.52;101237.09;12255555;19;19933;-86
2024/01/22 02:10:47;;;;;;;;;;;7.30;51.30;;;5.69;56.66;101234.59;12257218;19;19915;-86
2024/01/22 02:14:49;;;;;;;;;;;7.30;51.50;;;5.70;56.64;101218.19;12257136;19;19918;-86
2024/01/22 02:18:50;;;;;;;;;;;7.30;51.60;;;5.60;56.42;101170.09;12253317;19;19910;-86
2024/01/22 02:22:52;;;;;;;;;;;7.30;51.60;;;5.67;56.64;101170.75;12258429;19;19978;-87
2024/01/22 02:26:53;;;;;;;;;;;7.30;51.50;;;5.69;56.55;101164.63;12256350;19;19926;-86
2024/01/22 02:30:55;;;;;;;;;;;7.30;51.70;;;5.71;56.50;101134.38;12256580;19;19910;-87
2024/01/22 02:34:57;;;;;;;;;;;7.30;51.50;;;5.81;56.57;101162.63;12256190;19;20306;-86
2024/01/22 02:38:58;;;;;;;;;;;7.30;51.70;;;5.80;56.49;101153.13;12251772;19;19915;-86
2024/01/22 02:42:59;;;;;;;;;;;7.40;51.90;;;5.72;56.51;101117.06;12256701;19;20326;-86
2024/01/22 02:47:02;;;;;;;;;;;7.40;51.90;;;5.59;56.55;101087.22;12248340;19;19924;-86
2024/01/22 02:51:08;;;;;;;;;;;7.40;51.90;;;5.83;56.71;101116.75;12256834;19;19911;-86
2024/01/22 02:55:09;;;;;;;;;;;7.40;52.00;;;5.93;56.57;101134.63;12256827;19;19915;-87
2024/01/22 02:59:11;;;;;;;;;;;7.50;52.10;;;5.85;56.49;101102.03;12251473;19;19921;-87
2024/01/22 03:03:13;;;;;;;;;;;7.50;52.00;;;5.87;56.74;101102.84;12253445;19;20378;-86
2024/01/22 03:07:14;;;;;;;;;;;7.50;52.20;;;5.91;56.73;101099.25;12254111;19;19926;-87
2024/01/22 03:11:16;;;;;;;;;;;7.50;52.20;;;6.04;56.58;101099.75;12255938;19;19927;-86
2024/01/22 03:15:18;;;;;;;;;;;7.60;52.30;;;6.15;56.60;101098.53;12253390;19;19911;-86
2024/01/22 03:19:19;;;;;;;;;;;7.70;52.40;;;6.18;56.77;101071.66;12254465;19;19926;-87
2024/01/22 03:23:21;;;;;;;;;;;7.70;52.50;;;6.16;56.57;101083.84;12254504;19;19919;-86
2024/01/22 03:27:22;;;;;;;;;;;7.70;52.50;;;6.20;56.75;101072.47;12250792;19;19911;-87
2024/01/22 03:31:32;;;;;;;;;;;7.80;52.50;;;5.98;56.78;101023.88;12252678;19;19915;-87
2024/01/22 03:35:34;;;;;;;;;;;7.80;53.00;;;6.32;56.72;101063.44;12250971;19;19915;-86
2024/01/22 03:39:35;;;;;;;;;;;7.90;52.60;;;6.43;56.75;101056.19;12252136;19;20373;-86
2024/01/22 03:43:37;;;;;;;;;;;7.90;52.70;;;6.47;56.60;101065.53;12253984;19;19957;-87
2024/01/22 03:47:38;;;;;;;;;;;8.00;52.80;;;6.38;56.58;101043.34;12250403;19;19962;-87
2024/01/22 03:51:40;;;;;;;;;;;8.00;52.90;;;6.35;56.81;101008.91;12250289;19;19925;-86
2024/01/22 03:55:41;;;;;;;;;;;8.10;52.90;;;6.58;56.55;101034.91;12251048;19;19919;-86
2024/01/22 03:59:46;;;;;;;;;;;8.10;53.00;;;6.63;56.69;101026.97;12249304;19;19987;-87
2024/01/22 04:03:47;;;;;;;;;;;8.30;53.10;;;6.63;56.74;100999.25;12249924;19;19911;-87
2024/01/22 04:07:49;;;;;;;;;;;8.20;53.00;;;6.74;56.77;100998.06;12247914;19;19919;-87
2024/01/22 04:11:51;;;;;;;;;;;8.30;53.00;;;6.74;56.82;100985.06;12251607;19;19915;-86
2024/01/22 04:15:54;;;;;;;;;;;8.40;53.10;;;6.88;56.64;101001.00;12249225;19;19939;-86
2024/01/22 04:19:55;;;;;;;;;;;8.40;53.10;;;6.89;56.75;100996.69;12249168;19;19986;-87
2024/01/22 04:23:57;;;;;;;;;;;8.50;53.10;;;6.98;56.79;100983.34;12249962;19;19919;-87
2024/01/22 04:27:58;;;;;;;;;;;8.80;53.20;;;6.96;56.68;100980.81;12248613;19;19940;-86
2024/01/22 04:32:00;;;;;;;;;;;8.50;53.10;;;7.07;56.69;100996.88;12248841;19;19911;-86
2024/01/22 04:36:03;;;;;;;;;;;8.60;53.10;;;6.91;56.70;100941.19;12249545;19;20271;-86
2024/01/22 04:40:12;;;;;;;;;;;8.70;53.10;;;7.17;56.88;100962.75;12247979;19;19914;-86
2024/01/22 04:44:14;;;;;;;;;;;8.70;53.10;;;7.19;56.79;100964.41;12246279;19;19915;-86
2024/01/22 04:48:15;;;;;;;;;;;8.80;53.20;;;7.27;56.75;100930.34;12246800;19;19938;-86
2024/01/22 04:52:17;;;;;;;;;;;8.80;53.20;;;7.25;56.66;100895.78;12250566;19;19914;-86
2024/01/22 04:56:18;;;;;;;;;;;8.90;53.30;;;7.27;56.78;100881.00;12246617;19;20284;-86
2024/01/22 05:00:20;;;;;;;;;;;8.90;53.30;;;7.31;56.70;100874.75;12247294;19;19919;-86
2024/01/22 05:04:21;;;;;;;;;;;8.90;53.20;;;6.96;56.61;100845.81;12249335;19;19922;-86
2024/01/22 05:08:23;;;;;;;;;;;9.00;53.30;;;7.42;56.70;100910.72;12246841;19;19939;-86
2024/01/22 05:12:25;;;;;;;;;;;9.00;53.30;;;7.32;56.69;100868.69;12249407;19;19919;-86
2024/01/22 05:16:26;;;;;;;;;;;9.20;53.30;;;7.40;56.79;100861.44;12245915;19;19915;-86
2024/01/22 05:20:27;;;;;;;;;;;9.10;53.30;;;7.56;56.74;100824.41;12245932;19;20381;-86
2024/01/22 05:24:29;;;;;;;;;;;9.10;53.30;;;7.56;56.75;100736.06;12246613;19;20453;-85
2024/01/22 05:28:31;;;;;;;;;;;9.30;53.30;;;7.60;56.73;100743.66;12246347;19;19921;-85
2024/01/22 05:32:32;;;;;;;;;;;9.10;53.20;;;7.62;56.84;100788.63;12243004;19;19925;-86
2024/01/22 05:36:37;;;;;;;;;;;9.20;53.40;;;7.68;56.79;100840.34;12247517;19;19913;-86
2024/01/22 05:40:39;;;;;;;;;;;9.20;53.40;;;7.76;56.90;100819.25;12247229;19;19919;-86
2024/01/22 05:44:41;;;;;;;;;;;9.30;53.40;;;7.74;56.67;100808.91;12249243;19;19918;-86
2024/01/22 05:48:42;;;;;;;;;;;9.30;53.40;;;7.81;56.90;100765.31;12242697;19;19913;-86
2024/01/22 05:52:44;;;;;;;;;;;9.40;53.40;;;7.80;56.89;100739.38;12245766;19;19914;-86
2024/01/22 05:56:45;;;;;;;;;;;9.40;53.20;;;7.64;56.90;100713.19;12244653;19;19915;-87
2024/01/22 06:00:47;;;;;;;;;;;9.50;53.40;;;7.97;56.70;100765.50;12243983;19;19923;-86
2024/01/22 06:04:48;;;;;;;;;;;9.50;53.40;;;7.88;56.94;100732.91;12244027;19;19930;-86
2024/01/22 06:08:50;;;;;;;;;;;9.50;53.40;;;7.94;56.76;100711.88;12242561;19;19914;-86
2024/01/22 06:12:52;;;;;;;;;;;9.60;53.40;;;8.11;56.88;100729.31;12245938;19;19914;-86
2024/01/22 06:16:54;;;;;;;;;;;9.60;53.40;;;8.04;56.91;100682.84;12244346;19;20255;-87
2024/01/22 06:20:56;;;;;;;;;;;9.70;53.50;;;8.11;56.80;100655.66;12240825;19;19907;-86
2024/01/22 06:24:57;;;;;;;;;;;9.70;53.50;;;8.02;56.92;100636.13;12245892;19;20335;-86
2024/01/22 06:28:59;;;;;;;;;;;9.70;53.50;;;8.24;56.75;100664.56;12240657;19;19915;-86
2024/01/22 06:33:00;;;;;;;;;;;9.80;53.60;;;8.34;56.73;100677.97;12245431;19;19925;-86
2024/01/22 06:37:03;;;;;;;;;;;9.90;53.60;;;8.41;56.94;100697.63;12250454;19;19922;-86
2024/01/22 06:41:12;;;;;;;;;;;9.90;53.60;;;8.44;56.73;100688.84;12255246;19;20280;-86
2024/01/22 06:45:13;;;;;;;;;;;10.00;53.60;;;8.50;56.91;100688.53;12256353;19;19918;-86
2024/01/22 06:49:15;;;;;;;;;;;10.10;53.60;;;8.60;56.70;100695.84;12251525;19;19911;-87
2024/01/22 06:53:16;;;;;;;;;;;10.10;53.50;;;8.62;56.89;100690.56;12257913;19;19943;-86
2024/01/22 06:57:18;;;;;;;;;;;10.20;53.40;;;8.69;56.80;100701.53;12252538;19;19915;-88
2024/01/22 07:01:20;;;;;;;;;;;10.20;53.40;;;8.73;56.77;100690.91;12255044;19;20306;-87
2024/01/22 07:05:21;;;;;;;;;;;10.30;53.50;;;8.76;56.78;100687.31;12256524;19;20322;-88
2024/01/22 07:09:23;;;;;;;;;;;10.30;53.50;;;8.61;56.70;100637.69;12256169;19;19918;-86
2024/01/22 07:13:25;;;;;;;;;;;10.40;53.40;;;8.82;56.80;100679.19;12254615;19;19947;-87
2024/01/22 07:17:26;;;;;;;;;;;10.40;53.40;;;8.89;56.92;100674.53;12254345;19;19915;-87
2024/01/22 07:21:28;;;;;;;;;;;10.40;53.40;;;8.73;56.71;100651.00;12253176;19;19930;-87
2024/01/22 07:25:34;;;;;;;;;;;10.50;53.40;;;8.84;56.75;100649.56;12254770;19;19922;-87
2024/01/22 07:29:35;;;;;;;;;;;10.50;53.10;;;9.02;56.82;100662.59;12253553;19;20254;-86
2024/01/22 07:33:37;;;;;;;;;;;10.50;53.20;;;9.03;56.72;100659.06;12255477;19;19935;-87
2024/01/22 07:37:42;;;;;;;;;;;10.60;53.10;;;8.83;56.75;100623.59;12254464;19;20250;-87
2024/01/22 07:41:43;;;;;;;;;;;10.60;53.20;;;9.04;56.86;100642.50;12253001;19;19919;-86
2024/01/22 07:45:45;;;;;;;;;;;10.70;53.20;;;9.01;56.73;100619.22;12254298;19;19928;-87
2024/01/22 07:49:46;;;;;;;;;;;10.60;52.90;;;9.14;56.85;100630.72;12252432;19;19927;-88
2024/01/22 07:53:48;;;;;;;;;;;10.70;53.20;;;9.28;56.75;100622.19;12254819;19;19918;-87
2024/01/22 07:57:49;;;;;;;;;;;10.80;53.00;;;9.27;56.73;100595.28;12251151;19;19923;-87
2024/01/22 08:01:51;;;;;;;;;;;10.80;52.90;;;9.35;56.70;100605.31;12251923;19;19915;-86
2024/01/22 08:05:53;;;;;;;;;;;10.90;53.10;;;9.36;56.87;100596.56;12254440;19;19914;-87
2024/01/22 08:09:54;;;;;;;;;;;11.10;53.10;;;9.39;56.67;100598.19;12254578;19;19922;-87
2024/01/22 08:13:56;;;;;;;;;;;10.90;52.70;;;9.42;56.76;100603.22;12251260;19;19914;-87
2024/01/22 08:17:57;;;;;;;;;;;11.00;53.20;;;9.35;56.69;100578.44;12251136;19;19914;-87
2024/01/22 08:21:59;;;;;;;;;;;11.10;53.10;;;9.39;56.71;100585.16;12251304;19;19923;-86
2024/01/22 08:26:01;;;;;;;;;;;11.10;52.70;;;9.44;56.76;100585.75;12253640;19;19922;-86
2024/01/22 08:30:03;;;;;;;;;;;11.10;53.00;;;9.32;56.74;100558.59;12249968;19;19951;-86
2024/01/22 08:34:04;;;;;;;;;;;11.10;53.00;;;9.66;56.69;100616.75;12254910;19;20403;-87
2024/01/22 08:38:06;;;;;;;;;;;11.10;53.10;;;9.58;56.60;100608.47;12247939;19;19914;-86
2024/01/22 08:42:08;;;;;;;;;;;11.10;53.30;;;9.47;56.68;100598.63;12248970;19;19915;-86
2024/01/22 08:46:09;;;;;;;;;;;11.10;53.40;;;9.54;56.74;100605.22;12246865;19;20342;-86
2024/01/22 08:50:15;;;;;;;;;;;11.10;53.50;;;9.29;56.85;100558.75;12250785;19;19944;-86
2024/01/22 08:54:17;;;;;;;;;;;11.10;53.70;;;9.53;56.69;100621.75;12249268;19;19982;-86
2024/01/22 08:58:18;;;;;;;;;;;11.10;53.80;;;9.32;56.77;100574.22;12248223;19;19921;-87
2024/01/22 09:02:19;;;;;;;;;;;11.10;53.90;;;9.37;56.75;100584.38;12247097;19;19918;-88
2024/01/22 09:06:21;;;;;;;;;;;11.00;54.10;;;9.42;56.79;100611.03;12249586;19;19911;-89
2024/01/22 09:10:23;;;;;;;;;;;10.90;54.20;;;9.15;56.81;100566.44;12249502;19;20354;-88
2024/01/22 09:14:24;;;;;;;;;;;10.90;54.30;;;9.04;56.91;100578.22;12252202;19;19914;-88
2024/01/22 09:18:26;;;;;;;;;;;10.80;54.40;;;9.03;56.86;100570.50;12245368;19;19911;-87
2024/01/22 09:22:28;;;;;;;;;;;10.80;54.80;;;9.19;56.83;100607.88;12248348;19;20011;-88
2024/01/22 09:26:30;;;;;;;;;;;10.70;54.70;;;8.87;56.99;100554.81;12249400;19;20239;-88
2024/01/22 09:30:31;;;;;;;;;;;10.70;55.20;;;9.16;56.96;100617.63;12251034;19;19926;-88
2024/01/22 09:34:32;;;;;;;;;;;10.70;54.80;;;9.17;57.09;100617.53;12249275;19;19925;-88
2024/01/22 09:38:34;;;;;;;;;;;10.60;55.20;;;9.14;56.86;100604.66;12243774;19;19939;-88
2024/01/22 09:42:36;;;;;;;;;;;10.60;54.90;;;9.09;57.00;100588.44;12247169;19;19999;-89
2024/01/22 09:46:37;;;;;;;;;;;10.60;55.50;;;9.08;57.10;100592.78;12245383;19;19946;-88
2024/01/22 09:50:39;;;;;;;;;;;10.60;55.60;;;9.10;57.21;100590.13;12248709;19;19922;-88
2024/01/22 09:54:42;;;;;;;;;;;10.60;55.20;;;8.92;56.99;100558.03;12248509;19;20342;-88
2024/01/22 09:58:45;;;;;;;;;;;10.60;56.20;;;9.10;57.13;100571.91;12246247;19;19953;-88
2024/01/22 10:02:46;;;;;;;;;;;10.60;56.50;;;9.11;57.07;100560.53;12244570;19;19919;-88
2024/01/22 10:06:51;;;;;;;;;;;10.60;56.50;;;9.08;57.08;100539.88;12246847;19;19923;-88
2024/01/22 10:10:52;;;;;;;;;;;10.60;56.70;;;9.18;57.26;100542.81;12252055;19;19986;-88
2024/01/22 10:14:54;;;;;;;;;;;10.60;56.00;;;9.15;57.07;100517.75;12259588;19;19922;-88
2024/01/22 10:18:58;;;;;;;;;;;10.60;56.30;;;9.29;57.20;100523.09;12255284;19;19915;-88
2024/01/22 10:23:00;;;;;;;;;;;10.70;56.20;;;9.35;57.35;100526.31;12260914;19;19923;-87
2024/01/22 10:27:15;;;;;;;;;;;10.70;55.80;;;9.41;57.38;100525.97;12257676;19;20330;-89
2024/01/22 10:31:17;;;;;;;;;;;10.80;55.70;;;9.44;57.21;100497.13;12261039;19;20358;-87
2024/01/22 10:35:22;;;;;;;;;;;10.90;56.00;;;9.46;57.36;100495.31;12259354;19;19953;-87
2024/01/22 10:39:24;;;;;;;;;;;10.90;56.20;;;9.48;57.36;100470.84;12258054;19;19918;-88
2024/01/22 10:43:27;;;;;;;;;;;10.90;56.00;;;9.59;57.37;100493.72;12256690;19;20277;-87
2024/01/22 10:47:30;;;;;;;;;;;11.00;56.00;;;9.61;57.21;100475.34;12256801;19;19923;-87
2024/01/22 10:51:33;;;;;;;;;;;11.10;55.80;;;9.67;57.33;100465.44;12259149;19;19995;-87
2024/01/22 10:55:37;;;;;;;;;;;11.10;55.70;;;9.72;57.41;100471.25;12257698;19;19950;-87
2024/01/22 10:59:39;;;;;;;;;;;11.20;55.70;;;9.86;57.20;100465.25;12255827;19;19911;-87
2024/01/22 11:03:51;;;;;;;;;;;11.30;55.70;;;9.89;57.33;100446.00;12258338;19;19926;-87
2024/01/22 11:07:54;;;;;;;;;;;11.30;55.80;;;9.98;57.29;100435.03;12254683;19;20365;-87
2024/01/22 11:11:56;;;;;;;;;;;11.40;55.80;;;10.11;57.30;100436.00;12256244;19;19918;-88
2024/01/22 11:15:57;;;;;;;;;;;11.50;55.70;;;10.11;57.23;100422.94;12256996;19;19915;-86
2024/01/22 11:20:21;;;;;;;;;;;11.60;55.60;;;10.25;57.26;100421.31;12252580;19;19927;-87
2024/01/22 11:24:23;;;;;;;;;;;11.60;55.50;;;10.25;57.31;100408.25;12253127;19;20318;-87
2024/01/22 11:28:24;;;;;;;;;;;11.70;55.40;;;10.32;57.37;100393.97;12252426;19;19950;-87
2024/01/22 11:32:29;;;;;;;;;;;11.80;55.40;;;10.34;57.37;100381.63;12256605;19;19922;-87
2024/01/22 11:36:50;;;;;;;;;;;11.80;55.30;;;10.57;57.32;100404.59;12253545;19;19931;-86
2024/01/22 11:40:54;;;;;;;;;;;12.00;55.30;;;10.62;57.42;100381.66;12253552;19;19919;-86
2024/01/22 11:44:58;;;;;;;;;;;12.00;55.30;;;10.70;57.26;100386.41;12253440;19;19974;-87
2024/01/22 11:49:09;;;;;;;;;;;12.10;55.20;;;10.77;57.12;100376.41;12251190;19;19978;-87
2024/01/22 11:53:10;;;;;;;;;;;12.10;55.20;;;10.85;57.26;100371.56;12256071;19;19923;-85
2024/01/22 11:57:14;;;;;;;;;;;12.30;55.10;;;10.92;57.26;100361.59;12252426;19;19931;-85
2024/01/22 12:01:19;;;;;;;;;;;12.30;55.10;;;10.87;57.34;100345.34;12252200;19;19933;-86
2024/01/22 12:05:21;;;;;;;;;;;12.40;55.10;;;10.84;57.22;100335.94;12254552;19;19927;-87
2024/01/22 12:09:22;;;;;;;;;;;12.40;55.00;;;11.00;57.36;100343.66;12255260;19;19914;-87
2024/01/22 12:13:23;;;;;;;;;;;12.50;54.80;;;10.91;57.07;100332.00;12254644;19;19919;-88
2024/01/22 12:17:25;;;;;;;;;;;12.60;54.90;;;11.17;57.33;100368.72;12251960;19;19943;-86
2024/01/22 12:21:27;;;;;;;;;;;12.60;54.90;;;10.91;57.07;100305.91;12252050;19;19922;-87
2024/01/22 12:25:38;;;;;;;;;;;12.60;54.80;;;11.22;57.46;100343.13;12251985;19;19926;-86
2024/01/22 12:29:39;;;;;;;;;;;12.70;54.60;;;11.16;57.06;100336.50;12253240;19;19924;-86
2024/01/22 12:33:41;;;;;;;;;;;12.70;54.70;;;11.27;57.22;100348.91;12249703;19;19923;-86
2024/01/22 12:37:42;;;;;;;;;;;12.70;54.70;;;11.27;57.22;100328.81;12250655;19;19932;-87
2024/01/22 12:41:44;;;;;;;;;;;12.70;54.60;;;11.30;57.29;100344.31;12248953;19;19911;-86
2024/01/22 12:45:46;;;;;;;;;;;12.80;54.70;;;11.38;57.25;100330.75;12251498;19;19919;-86
2024/01/22 12:49:47;;;;;;;;;;;12.80;54.70;;;11.35;57.36;100322.28;12253551;19;19911;-86
2024/01/22 12:53:49;;;;;;;;;;;12.80;54.50;;;11.41;57.36;100321.88;12250639;19;19919;-86
2024/01/22 12:57:50;;;;;;;;;;;12.80;54.60;;;11.46;57.33;100328.47;12251402;19;20354;-86
2024/01/22 13:01:52;;;;;;;;;;;12.90;54.60;;;11.25;57.16;100282.81;12251019;19;19927;-86
2024/01/22 13:05:53;;;;;;;;;;;12.90;54.60;;;11.54;57.23;100312.28;12252890;19;19947;-85
2024/01/22 13:09:54;;;;;;;;;;;12.90;54.60;;;11.48;57.12;100281.31;12251059;19;19943;-86
2024/01/22 13:13:57;;;;;;;;;;;13.00;54.70;;;11.39;57.33;100266.22;12250637;19;19914;-86
2024/01/22 13:17:59;;;;;;;;;;;13.00;54.60;;;11.62;57.16;100280.41;12242097;19;19915;-86
2024/01/22 13:22:00;;;;;;;;;;;13.00;54.70;;;11.68;57.34;100285.19;12245568;19;20255;-86
2024/01/22 13:26:02;;;;;;;;;;;13.10;54.60;;;11.46;57.28;100226.50;12245443;19;20255;-86
2024/01/22 13:30:04;;;;;;;;;;;13.10;54.50;;;11.74;57.21;100272.53;12247348;19;19915;-86
2024/01/22 13:34:06;;;;;;;;;;;13.10;54.60;;;11.65;57.20;100251.41;12246744;19;19926;-86
2024/01/22 13:38:07;;;;;;;;;;;13.10;54.50;;;11.71;57.18;100261.44;12246143;19;20629;-86
2024/01/22 13:42:09;;;;;;;;;;;13.20;54.60;;;11.66;57.10;100247.84;12244801;19;19915;-85
2024/01/22 13:46:11;;;;;;;;;;;13.20;54.60;;;11.58;57.23;100216.16;12246684;19;19923;-86
2024/01/22 13:50:13;;;;;;;;;;;13.20;54.60;;;11.82;57.05;100247.66;12247493;19;19923;-86
2024/01/22 13:54:14;;;;;;;;;;;13.20;54.60;;;11.62;57.26;100205.38;12247482;19;19947;-86
2024/01/22 13:58:16;;;;;;;;;;;13.20;54.40;;;11.59;57.26;100194.31;12242250;19;19914;-85
2024/01/22 14:02:18;;;;;;;;;;;13.20;54.50;;;11.78;57.08;100223.50;12243593;19;19986;-86
2024/01/22 14:06:19;;;;;;;;;;;13.20;54.40;;;11.81;57.08;100232.91;12247234;19;19926;-85
2024/01/22 14:10:20;;;;;;;;;;;13.20;54.50;;;11.75;57.04;100218.47;12242849;19;19953;-86
2024/01/22 14:14:22;;;;;;;;;;;13.20;54.40;;;11.81;57.14;100225.88;12248975;19;19918;-86
2024/01/22 14:18:26;;;;;;;;;;;13.20;54.50;;;11.62;57.18;100188.84;12245702;19;19918;-86
2024/01/22 14:22:28;;;;;;;;;;;13.20;54.40;;;11.81;57.14;100215.44;12245465;19;19922;-86
2024/01/22 14:26:30;;;;;;;;;;;13.30;54.50;;;11.66;57.20;100185.06;12245352;19;19943;-86
2024/01/22 14:30:31;;;;;;;;;;;13.30;54.50;;;11.87;57.11;100241.19;12246494;19;19931;-86
2024/01/22 14:34:33;;;;;;;;;;;13.30;54.60;;;11.92;57.15;100244.34;12243608;19;19966;-87
2024/01/22 14:38:35;;;;;;;;;;;13.30;54.60;;;11.92;57.05;100241.72;12242766;19;19915;-86
2024/01/22 14:42:37;;;;;;;;;;;13.30;54.50;;;11.62;57.10;100187.06;12243302;19;19918;-85
2024/01/22 14:46:41;;;;;;;;;;;13.30;54.60;;;11.86;57.08;100218.59;12237924;19;20342;-86
2024/01/22 14:50:45;;;;;;;;;;;13.30;54.50;;;11.92;57.11;100220.78;12249896;19;19915;-86
2024/01/22 14:54:47;;;;;;;;;;;13.40;54.60;;;11.99;57.17;100233.44;12247285;19;19922;-86
2024/01/22 14:58:48;;;;;;;;;;;13.40;54.40;;;11.94;57.26;100234.59;12252835;19;19923;-87
2024/01/22 15:02:49;;;;;;;;;;;13.40;54.40;;;11.94;57.04;100242.47;12254282;19;19910;-86
2024/01/22 15:06:52;;;;;;;;;;;13.40;54.50;;;12.03;57.04;100256.69;12254852;19;20354;-86
2024/01/22 15:10:53;;;;;;;;;;;13.40;54.50;;;11.99;57.08;100260.47;12257384;19;19924;-86
2024/01/22 15:14:56;;;;;;;;;;;13.40;54.30;;;11.89;57.28;100255.00;12254891;19;19915;-86
2024/01/22 15:18:58;;;;;;;;;;;13.40;54.30;;;11.82;56.90;100248.47;12250110;19;20622;-86
2024/01/22 15:22:59;;;;;;;;;;;13.40;54.30;;;11.91;57.01;100262.78;12252640;19;20321;-86
2024/01/22 15:27:00;;;;;;;;;;;13.40;54.10;;;11.81;57.03;100257.28;12253347;19;19910;-86
2024/01/22 15:31:02;;;;;;;;;;;13.30;54.20;;;11.82;57.08;100268.56;12255524;19;19920;-86
2024/01/22 15:35:04;;;;;;;;;;;13.20;54.30;;;11.87;56.90;100288.28;12253458;19;19911;-86
2024/01/22 15:39:06;;;;;;;;;;;13.30;54.30;;;11.75;57.08;100257.72;12251645;19;19941;-86
2024/01/22 15:43:07;;;;;;;;;;;13.20;54.20;;;11.70;56.98;100265.03;12254815;19;19923;-87
2024/01/22 15:47:09;;;;;;;;;;;13.20;54.30;;;11.78;56.99;100275.81;12252652;19;19936;-85
2024/01/22 15:51:10;;;;;;;;;;;13.20;54.40;;;11.80;56.94;100283.53;12253437;19;19911;-85
2024/01/22 15:55:11;;;;;;;;;;;13.20;54.40;;;11.70;57.15;100286.78;12255515;19;19923;-85
2024/01/22 15:59:13;;;;;;;;;;;13.20;54.60;;;11.59;56.95;100264.91;12250427;19;20285;-86
2024/01/22 16:03:14;;;;;;;;;;;13.20;54.90;;;11.76;56.99;100309.06;12252199;19;19925;-86
2024/01/22 16:07:16;;;;;;;;;;;13.10;54.70;;;11.72;57.01;100321.53;12250673;19;20356;-86
2024/01/22 16:11:17;;;;;;;;;;;13.10;54.80;;;11.52;56.99;100298.47;12255550;19;19933;-86
2024/01/22 16:15:19;;;;;;;;;;;13.10;54.90;;;11.56;57.09;100314.78;12251504;19;19903;-86
2024/01/22 16:19:20;;;;;;;;;;;13.00;54.90;;;11.55;57.02;100290.41;12252770;19;19914;-86
2024/01/22 16:23:22;;;;;;;;;;;13.20;55.00;;;11.50;56.99;100295.97;12252222;19;19949;-86
2024/01/22 16:27:28;;;;;;;;;;;13.00;55.00;;;11.57;56.86;100321.69;12246213;19;20326;-86
2024/01/22 16:31:30;;;;;;;;;;;12.90;55.30;;;11.48;57.21;100313.53;12251366;19;19932;-86
2024/01/22 16:35:32;;;;;;;;;;;12.90;55.10;;;11.54;57.07;100320.13;12249560;19;19943;-86
2024/01/22 16:39:37;;;;;;;;;;;12.90;55.10;;;11.22;57.02;100281.22;12255346;19;19974;-87
2024/01/22 16:43:39;;;;;;;;;;;12.90;55.10;;;11.40;57.26;100305.34;12249849;19;20334;-85
2024/01/22 16:47:41;;;;;;;;;;;12.90;55.10;;;11.26;57.12;100292.31;12247381;19;19907;-86
2024/01/22 16:51:42;;;;;;;;;;;12.80;55.20;;;11.54;57.01;100329.75;12248894;19;19947;-85
2024/01/22 16:55:44;;;;;;;;;;;12.80;55.20;;;11.35;56.99;100307.41;12248112;19;19914;-86
2024/01/22 16:59:45;;;;;;;;;;;12.90;55.20;;;11.59;57.24;100351.22;12249772;19;19918;-85
2024/01/22 17:03:47;;;;;;;;;;;12.90;55.20;;;11.35;57.16;100320.50;12248981;19;20648;-86
2024/01/22 17:07:49;;;;;;;;;;;12.90;55.20;;;11.52;57.24;100354.19;12249050;19;19914;-86
2024/01/22 17:11:50;;;;;;;;;;;12.90;55.30;;;11.56;57.15;100364.47;12249118;19;19927;-86
2024/01/22 17:15:52;;;;;;;;;;;12.90;55.20;;;11.50;57.14;100358.72;12248239;19;19918;-86
2024/01/22 17:19:53;;;;;;;;;;;12.90;55.30;;;11.55;56.96;100361.00;12246682;19;19907;-85
2024/01/22 17:23:55;;;;;;;;;;;12.90;55.20;;;11.65;57.31;100379.56;12247897;19;19923;-85
2024/01/22 17:27:56;;;;;;;;;;;12.90;55.30;;;11.60;57.04;100379.03;12246801;19;20599;-86
2024/01/22 17:31:58;;;;;;;;;;;13.00;55.20;;;11.57;57.30;100377.44;12246384;19;20358;-86
2024/01/22 17:35:59;;;;;;;;;;;13.00;55.20;;;11.65;57.02;100416.19;12245296;19;19926;-85
2024/01/22 17:40:00;;;;;;;;;;;13.00;55.20;;;11.57;57.15;100419.28;12241148;19;19919;-86
2024/01/22 17:44:02;;;;;;;;;;;13.00;55.20;;;11.70;57.21;100440.28;12247732;19;19939;-86
2024/01/22 17:48:04;;;;;;;;;;;13.00;55.20;;;11.67;56.98;100438.69;12246803;19;19919;-86
2024/01/22 17:52:05;;;;;;;;;;;13.00;55.20;;;11.41;57.10;100406.34;12249922;19;19915;-86
2024/01/22 17:56:07;;;;;;;;;;;13.00;55.10;;;11.66;57.23;100462.31;12245474;19;19925;-85
2024/01/22 18:00:09;;;;;;;;;;;13.00;55.10;;;11.64;57.22;100469.44;12245725;19;19914;-86
2024/01/22 18:04:13;;;;;;;;;;;13.00;55.10;;;11.67;57.09;100485.78;12246650;19;19966;-85
2024/01/22 18:08:15;;;;;;;;;;;13.00;55.10;;;11.58;57.27;100481.09;12246428;19;19939;-86
2024/01/22 18:12:17;;;;;;;;;;;13.00;55.10;;;11.55;57.13;100481.31;12245689;19;20250;-85
2024/01/22 18:16:18;;;;;;;;;;;13.00;55.00;;;11.45;57.31;100467.13;12245892;19;20354;-86
2024/01/22 18:20:19;;;;;;;;;;;12.90;54.90;;;11.49;57.24;100481.69;12245741;19;19922;-85